createdAt,value
2018-10-16T00:00:43.154Z,59.90
2018-10-16T00:03:13.335Z,59.60
2018-10-16T00:05:43.401Z,59.60
2018-10-16T00:08:13.462Z,59.40
2018-10-16T00:10:46.441Z,60.10
2018-10-16T00:13:16.567Z,59.90
2018-10-16T00:15:46.652Z,59.90
2018-10-16T00:18:16.762Z,59.70
2018-10-16T00:20:46.824Z,59.60
2018-10-16T00:23:16.964Z,59.70
2018-10-16T00:25:47.030Z,59.50
2018-10-16T00:28:17.061Z,59.60
2018-10-16T00:30:47.113Z,60.50
2018-10-16T00:33:17.214Z,60.00
2018-10-16T00:35:47.238Z,60.20
2018-10-16T00:38:17.283Z,60.10
2018-10-16T00:40:47.312Z,60.40
2018-10-16T00:43:17.332Z,60.20
2018-10-16T00:45:47.384Z,60.70
2018-10-16T00:48:17.386Z,60.70
2018-10-16T00:50:47.413Z,60.70
2018-10-16T00:53:17.502Z,60.60
2018-10-16T00:55:47.518Z,60.90
2018-10-16T00:58:17.626Z,61.30
2018-10-16T01:00:47.780Z,61.50
2018-10-16T01:03:17.822Z,61.30
2018-10-16T01:05:47.865Z,61.10
2018-10-16T01:08:17.997Z,61.20
2018-10-16T01:10:54.829Z,61.10
2018-10-16T01:13:24.988Z,60.70
2018-10-16T01:15:55.001Z,60.50
2018-10-16T01:18:25.124Z,60.60
2018-10-16T01:20:55.161Z,60.70
2018-10-16T01:23:25.209Z,60.90
2018-10-16T01:25:55.276Z,61.20
2018-10-16T01:28:25.373Z,61.40
2018-10-16T01:30:55.614Z,62.10
2018-10-16T01:33:25.686Z,61.50
2018-10-16T01:35:55.817Z,61.60
2018-10-16T01:38:26.051Z,61.50
2018-10-16T01:40:56.116Z,61.60
2018-10-16T01:43:26.387Z,61.60
2018-10-16T01:45:56.720Z,62.20
2018-10-16T01:48:26.924Z,62.10
2018-10-16T01:50:56.941Z,62.50
2018-10-16T01:53:27.022Z,62.50
2018-10-16T01:55:57.435Z,62.50
2018-10-16T01:58:27.687Z,62.60
2018-10-16T02:00:57.962Z,62.60
2018-10-16T02:03:27.993Z,62.50
2018-10-16T02:05:58.002Z,62.40
2018-10-16T02:08:28.011Z,62.30
2018-10-16T02:10:58.092Z,62.20
2018-10-16T02:13:28.130Z,62.40
2018-10-16T02:15:58.173Z,62.50
2018-10-16T02:18:28.262Z,62.80
2018-10-16T02:20:58.289Z,63.10
2018-10-16T02:23:28.306Z,63.10
2018-10-16T02:25:58.318Z,63.10
2018-10-16T02:28:28.727Z,63.10
2018-10-16T02:30:59.294Z,63.00
2018-10-16T02:33:29.357Z,62.50
2018-10-16T02:35:59.506Z,62.60
2018-10-16T02:38:29.567Z,62.70
2018-10-16T02:40:59.770Z,62.90
2018-10-16T02:43:30.149Z,62.80
2018-10-16T02:46:00.139Z,62.80
2018-10-16T02:48:30.296Z,62.80
2018-10-16T02:51:00.390Z,62.90
2018-10-16T02:53:30.414Z,63.40
2018-10-16T02:56:00.636Z,63.30
2018-10-16T02:58:30.781Z,63.40
2018-10-16T03:01:01.595Z,63.30
2018-10-16T03:03:35.368Z,63.00
2018-10-16T03:06:05.497Z,62.90
2018-10-16T03:08:36.258Z,63.30
2018-10-16T03:11:06.894Z,63.50
2018-10-16T03:13:37.039Z,63.30
2018-10-16T03:16:07.162Z,63.50
2018-10-16T03:18:37.668Z,64.60
2018-10-16T03:21:07.821Z,64.90
2018-10-16T03:23:37.846Z,64.80
2018-10-16T03:26:07.905Z,64.80
2018-10-16T03:28:38.052Z,65.40
2018-10-16T03:31:08.044Z,65.60
2018-10-16T03:33:38.325Z,65.80
2018-10-16T03:36:08.550Z,65.90
2018-10-16T03:38:38.774Z,65.90
2018-10-16T03:41:08.897Z,65.90
2018-10-16T03:43:39.807Z,65.60
2018-10-16T03:49:08.620Z,65.70
2018-10-16T03:51:39.069Z,65.80
2018-10-16T03:54:09.712Z,66.00
2018-10-16T03:56:39.828Z,66.20
2018-10-16T03:59:09.882Z,66.20
2018-10-16T04:01:39.936Z,66.50
2018-10-16T04:04:10.631Z,66.20
2018-10-16T04:06:40.638Z,65.60
2018-10-16T04:09:10.585Z,65.40
2018-10-16T04:11:40.582Z,65.60
2018-10-16T04:14:10.567Z,65.60
2018-10-16T04:16:40.570Z,65.50
2018-10-16T04:19:10.480Z,65.60
2018-10-16T04:21:43.336Z,65.40
2018-10-16T04:24:13.410Z,65.40
2018-10-16T04:26:43.313Z,65.70
2018-10-16T04:29:13.385Z,65.90
2018-10-16T04:31:43.288Z,66.40
2018-10-16T04:34:13.223Z,66.70
2018-10-16T04:36:43.214Z,66.60
2018-10-16T04:39:14.365Z,68.20
2018-10-16T04:41:44.360Z,69.60
2018-10-16T04:44:14.225Z,70.10
2018-10-16T04:46:44.473Z,69.60
2018-10-16T04:49:14.381Z,69.60
2018-10-16T04:51:44.304Z,69.60
2018-10-16T04:54:14.210Z,69.30
2018-10-16T04:56:44.277Z,68.90
2018-10-16T04:59:21.005Z,69.00
2018-10-16T05:01:50.907Z,68.70
2018-10-16T05:04:20.853Z,68.30
2018-10-16T05:06:50.942Z,67.90
2018-10-16T05:09:20.962Z,67.50
2018-10-16T05:11:52.462Z,67.70
2018-10-16T05:14:22.485Z,67.70
2018-10-16T05:16:52.537Z,67.40
2018-10-16T05:19:22.389Z,67.70
2018-10-16T05:21:52.293Z,69.40
2018-10-16T05:24:22.221Z,68.80
2018-10-16T05:26:52.241Z,68.80
2018-10-16T05:29:22.246Z,68.50
2018-10-16T05:31:52.168Z,68.20
2018-10-16T05:34:22.077Z,68.80
2018-10-16T05:36:51.993Z,69.60
2018-10-16T05:39:21.956Z,69.50
2018-10-16T05:41:51.911Z,69.50
2018-10-16T05:44:21.809Z,70.00
2018-10-16T05:46:51.721Z,70.50
2018-10-16T05:49:21.626Z,70.10
2018-10-16T05:51:51.622Z,69.80
2018-10-16T05:54:21.600Z,69.70
2018-10-16T05:56:51.446Z,69.90
2018-10-16T05:59:21.377Z,69.80
2018-10-16T06:01:51.309Z,69.90
2018-10-16T06:04:21.227Z,70.00
2018-10-16T06:06:51.397Z,69.90
2018-10-16T06:09:21.315Z,70.00
2018-10-16T06:11:51.319Z,70.00
2018-10-16T06:14:27.521Z,70.30
2018-10-16T06:16:58.660Z,70.10
2018-10-16T06:19:28.561Z,70.10
2018-10-16T06:21:58.477Z,70.20
2018-10-16T06:24:28.842Z,69.60
2018-10-16T06:26:58.809Z,69.70
2018-10-16T06:29:29.021Z,70.00
2018-10-16T06:31:59.121Z,69.40
2018-10-16T06:34:29.183Z,69.00
2018-10-16T06:36:59.102Z,68.90
2018-10-16T06:39:29.022Z,68.70
2018-10-16T06:41:58.956Z,68.30
2018-10-16T06:44:29.214Z,67.60
2018-10-16T06:46:59.121Z,67.50
2018-10-16T06:49:29.258Z,67.50
2018-10-16T06:51:59.212Z,67.10
2018-10-16T06:54:29.172Z,66.40
2018-10-16T06:56:59.089Z,66.60
2018-10-16T06:59:29.031Z,66.20
2018-10-16T07:01:59.164Z,66.10
2018-10-16T07:04:29.096Z,66.20
2018-10-16T07:06:59.142Z,65.80
2018-10-16T07:09:29.248Z,64.70
2018-10-16T07:11:59.213Z,64.80
2018-10-16T07:14:29.189Z,64.20
2018-10-16T07:16:59.200Z,63.50
2018-10-16T07:19:35.480Z,63.00
2018-10-16T07:22:08.971Z,62.90
2018-10-16T07:24:38.973Z,62.30
2018-10-16T07:27:09.012Z,61.80
2018-10-16T07:29:38.961Z,61.70
2018-10-16T07:32:08.918Z,61.40
2018-10-16T07:34:38.845Z,60.70
2018-10-16T07:37:08.814Z,60.50
2018-10-16T07:39:38.782Z,60.50
2018-10-16T07:42:08.737Z,60.40
2018-10-16T07:44:38.679Z,59.30
2018-10-16T07:47:08.598Z,59.30
2018-10-16T07:49:38.593Z,58.60
2018-10-16T07:52:08.517Z,58.00
2018-10-16T07:54:38.526Z,58.10
2018-10-16T07:57:08.731Z,57.00
2018-10-16T07:59:38.837Z,56.70
2018-10-16T08:02:08.821Z,56.70
2018-10-16T08:04:38.803Z,55.90
2018-10-16T08:07:08.774Z,55.80
2018-10-16T08:09:38.686Z,56.20
2018-10-16T08:12:09.621Z,54.60
2018-10-16T08:14:39.965Z,54.00
2018-10-16T08:17:10.409Z,54.10
2018-10-16T08:19:40.267Z,52.90
2018-10-16T08:22:10.249Z,52.80
2018-10-16T08:24:40.230Z,52.00
2018-10-16T08:27:10.126Z,51.30
2018-10-16T08:29:40.057Z,51.30
2018-10-16T08:32:10.013Z,50.80
2018-10-16T08:34:39.977Z,52.00
2018-10-16T08:37:12.564Z,50.70
2018-10-16T08:39:43.849Z,50.60
2018-10-16T08:43:37.289Z,49.70
2018-10-16T08:46:24.399Z,49.70
2018-10-16T08:49:11.556Z,48.10
2018-10-16T08:51:51.809Z,48.00
2018-10-16T08:54:21.986Z,47.80
2018-10-16T08:56:52.033Z,47.80
2018-10-16T08:59:21.941Z,47.80
2018-10-16T09:01:51.947Z,47.20
2018-10-16T09:04:21.977Z,47.00
2018-10-16T09:06:51.977Z,46.90
2018-10-16T09:09:21.891Z,45.60
2018-10-16T09:11:51.838Z,45.10
2018-10-16T09:14:21.867Z,44.80
2018-10-16T09:16:51.875Z,44.60
2018-10-16T09:19:21.802Z,43.90
2018-10-16T09:21:51.735Z,43.50
2018-10-16T09:24:21.669Z,43.00
2018-10-16T09:26:51.721Z,43.10
2018-10-16T09:29:21.630Z,43.20
2018-10-16T09:31:51.589Z,43.30
2018-10-16T09:34:21.515Z,43.30
2018-10-16T09:36:51.451Z,43.40
2018-10-16T09:39:21.432Z,42.70
2018-10-16T09:41:51.362Z,42.40
2018-10-16T09:44:21.330Z,42.60
2018-10-16T09:46:51.257Z,43.40
2018-10-16T09:49:22.009Z,44.40
2018-10-16T09:51:51.921Z,44.70
2018-10-16T09:54:21.891Z,45.60
2018-10-16T09:56:51.801Z,45.70
2018-10-16T09:59:21.764Z,46.20
2018-10-16T10:01:54.092Z,46.30
2018-10-16T10:04:24.598Z,47.40
2018-10-16T10:06:54.514Z,47.40
2018-10-16T10:09:24.437Z,47.30
2018-10-16T10:11:54.447Z,47.50
2018-10-16T10:14:24.473Z,47.30
2018-10-16T10:16:54.390Z,47.30
2018-10-16T10:19:24.432Z,47.70
2018-10-16T10:21:54.448Z,47.70
2018-10-16T10:24:25.106Z,47.40
2018-10-16T10:26:55.100Z,47.60
2018-10-16T10:29:25.047Z,47.50
2018-10-16T10:31:54.989Z,47.60
2018-10-16T10:34:24.925Z,47.80
2018-10-16T10:36:54.829Z,47.60
2018-10-16T10:39:25.706Z,47.80
2018-10-16T10:41:55.719Z,46.70
2018-10-16T10:44:25.731Z,45.40
2018-10-16T10:46:55.679Z,44.80
2018-10-16T10:49:25.613Z,44.00
2018-10-16T10:51:55.551Z,43.90
2018-10-16T10:54:25.505Z,41.90
2018-10-16T10:56:55.510Z,41.10
2018-10-16T10:59:25.649Z,40.00
2018-10-16T11:01:55.564Z,40.00
2018-10-16T11:04:25.587Z,39.30
2018-10-16T11:06:55.498Z,39.40
2018-10-16T11:09:25.447Z,39.10
2018-10-16T11:11:56.487Z,38.90
2018-10-16T11:14:27.353Z,38.40
2018-10-16T11:16:57.281Z,37.30
2018-10-16T11:19:29.259Z,37.70
2018-10-16T11:21:59.149Z,36.60
2018-10-16T11:24:29.133Z,37.50
2018-10-16T11:26:59.109Z,35.90
2018-10-16T11:29:28.982Z,36.40
2018-10-16T11:31:58.897Z,36.20
2018-10-16T11:34:28.824Z,36.30
2018-10-16T11:36:58.946Z,35.90
2018-10-16T11:39:28.745Z,35.10
2018-10-16T11:41:58.672Z,35.70
2018-10-16T11:44:28.638Z,35.40
2018-10-16T11:46:58.700Z,36.50
2018-10-16T11:49:28.644Z,35.20
2018-10-16T11:51:58.742Z,35.20
2018-10-16T11:54:28.522Z,35.60
2018-10-16T11:56:58.425Z,34.70
2018-10-16T11:59:28.374Z,34.80
2018-10-16T12:01:58.325Z,34.60
2018-10-16T12:04:28.394Z,35.60
2018-10-16T12:06:58.328Z,35.40
2018-10-16T12:09:28.281Z,36.50
2018-10-16T12:11:58.229Z,36.40
2018-10-16T12:14:28.166Z,36.30
2018-10-16T12:17:03.474Z,36.30
2018-10-16T12:19:40.982Z,36.20
2018-10-16T12:22:10.881Z,36.20
2018-10-16T12:24:41.346Z,36.20
2018-10-16T12:27:11.564Z,36.30
2018-10-16T12:29:41.890Z,36.20
2018-10-16T12:32:11.879Z,36.20
2018-10-16T12:34:41.869Z,35.50
2018-10-16T12:37:11.851Z,35.40
2018-10-16T12:39:41.800Z,36.30
2018-10-16T12:42:11.967Z,36.50
2018-10-16T12:44:42.439Z,36.60
2018-10-16T12:47:12.400Z,35.50
2018-10-16T12:49:42.423Z,35.60
2018-10-16T12:52:12.325Z,35.80
2018-10-16T12:54:42.318Z,35.30
2018-10-16T12:57:12.904Z,35.40
2018-10-16T12:59:42.776Z,35.40
2018-10-16T13:02:12.755Z,35.50
2018-10-16T13:04:42.754Z,34.90
2018-10-16T13:07:22.060Z,34.30
2018-10-16T13:09:52.031Z,34.60
2018-10-16T13:12:21.981Z,34.20
2018-10-16T13:14:52.010Z,33.90
2018-10-16T13:17:22.048Z,34.00
2018-10-16T13:19:51.943Z,34.60
2018-10-16T13:22:21.853Z,33.60
2018-10-16T13:24:51.933Z,33.80
2018-10-16T13:27:21.885Z,33.70
2018-10-16T13:29:51.851Z,34.00
2018-10-16T13:32:21.798Z,33.80
2018-10-16T13:34:51.794Z,34.00
2018-10-16T13:37:22.221Z,33.60
2018-10-16T13:39:52.189Z,33.90
2018-10-16T13:42:22.180Z,33.90
2018-10-16T13:44:52.053Z,34.00
2018-10-16T13:47:22.066Z,35.00
2018-10-16T13:49:52.010Z,35.20
2018-10-16T13:52:21.918Z,34.70
2018-10-16T13:54:51.840Z,35.10
2018-10-16T13:57:21.925Z,35.10
2018-10-16T13:59:51.947Z,36.00
2018-10-16T14:02:21.897Z,35.70
2018-10-16T14:04:52.205Z,35.40
2018-10-16T14:07:22.073Z,35.70
2018-10-16T14:09:52.005Z,36.10
2018-10-16T14:12:21.926Z,36.00
2018-10-16T14:14:51.912Z,36.00
2018-10-16T14:17:21.846Z,36.00
2018-10-16T14:19:51.844Z,36.00
2018-10-16T14:22:21.751Z,36.30
2018-10-16T14:24:51.654Z,35.90
2018-10-16T14:27:21.666Z,36.10
2018-10-16T14:29:51.617Z,36.70
2018-10-16T14:32:21.762Z,37.00
2018-10-16T14:34:51.692Z,37.00
2018-10-16T14:37:21.575Z,36.80
2018-10-16T14:39:51.521Z,36.70
2018-10-16T14:42:21.413Z,36.90
2018-10-16T14:44:51.378Z,37.20
2018-10-16T14:47:21.750Z,37.20
2018-10-16T14:49:51.777Z,37.60
2018-10-16T14:52:21.769Z,38.10
2018-10-16T14:54:51.690Z,38.20
2018-10-16T14:57:21.842Z,38.40
2018-10-16T14:59:51.838Z,39.00
2018-10-16T15:02:21.831Z,38.90
2018-10-16T15:04:51.884Z,39.30
2018-10-16T15:07:21.838Z,39.10
2018-10-16T15:09:51.846Z,39.80
2018-10-16T15:12:26.875Z,39.40
2018-10-16T15:14:56.895Z,39.70
2018-10-16T15:17:27.364Z,39.90
2018-10-16T15:19:57.373Z,39.90
2018-10-16T15:22:27.754Z,39.80
2018-10-16T15:24:58.120Z,40.10
2018-10-16T15:27:28.069Z,40.80
2018-10-16T15:29:57.982Z,40.90
2018-10-16T15:32:27.985Z,41.00
2018-10-16T15:34:57.927Z,41.20
2018-10-16T15:37:27.891Z,41.40
2018-10-16T15:39:57.864Z,41.70
2018-10-16T15:42:27.770Z,42.00
2018-10-16T15:44:57.761Z,42.40
2018-10-16T15:47:27.686Z,42.70
2018-10-16T15:49:57.987Z,42.90
2018-10-16T15:52:27.976Z,43.70
2018-10-16T15:54:57.953Z,43.60
2018-10-16T15:57:27.988Z,44.40
2018-10-16T15:59:57.967Z,44.70
2018-10-16T16:02:27.980Z,45.10
2018-10-16T16:04:57.887Z,45.20
2018-10-16T16:07:27.826Z,45.10
2018-10-16T16:09:58.236Z,46.10
2018-10-16T16:12:28.681Z,45.60
2018-10-16T16:14:59.034Z,45.60
2018-10-16T16:17:28.990Z,45.60
2018-10-16T16:19:59.009Z,45.80
2018-10-16T16:22:29.019Z,46.10
2018-10-16T16:24:58.979Z,46.30
2018-10-16T16:30:28.815Z,46.60
2018-10-16T16:32:58.752Z,47.20
2018-10-16T16:35:28.670Z,47.20
2018-10-16T16:37:58.642Z,47.70
2018-10-16T16:40:28.542Z,48.50
2018-10-16T16:42:58.461Z,49.30
2018-10-16T16:45:28.455Z,49.30
2018-10-16T16:47:58.367Z,49.80
2018-10-16T16:50:28.286Z,50.30
2018-10-16T16:52:58.205Z,50.20
2018-10-16T16:55:28.171Z,50.60
2018-10-16T16:57:58.199Z,51.10
2018-10-16T17:00:28.145Z,51.10
2018-10-16T17:02:58.050Z,51.00
2018-10-16T17:05:28.053Z,51.20
2018-10-16T17:07:58.651Z,51.40
2018-10-16T17:10:28.522Z,50.80
2018-10-16T17:12:58.446Z,50.90
2018-10-16T17:15:28.402Z,50.70
2018-10-16T17:17:58.477Z,50.70
2018-10-16T17:20:28.426Z,51.20
2018-10-16T17:22:58.381Z,52.80
2018-10-16T17:25:28.651Z,53.40
2018-10-16T17:27:58.369Z,53.40
2018-10-16T17:30:28.241Z,53.80
2018-10-16T17:32:58.239Z,54.80
2018-10-16T17:35:28.121Z,54.80
2018-10-16T17:37:58.169Z,54.70
2018-10-16T17:40:28.090Z,55.10
2018-10-16T17:42:58.289Z,55.30
2018-10-16T17:45:28.221Z,55.80
2018-10-16T17:47:58.271Z,56.30
2018-10-16T17:50:28.376Z,56.50
2018-10-16T17:52:58.285Z,57.00
2018-10-16T17:55:28.203Z,57.40
2018-10-16T17:57:58.203Z,57.40
2018-10-16T18:00:28.485Z,57.50
2018-10-16T18:02:58.472Z,58.30
2018-10-16T18:05:28.372Z,58.20
2018-10-16T18:07:58.352Z,58.40
2018-10-16T18:10:28.241Z,58.60
2018-10-16T18:12:58.169Z,58.50
2018-10-16T18:15:28.129Z,58.50
2018-10-16T18:17:58.162Z,58.80
2018-10-16T18:20:28.089Z,58.80
2018-10-16T18:23:04.638Z,58.90
2018-10-16T18:25:34.577Z,58.80
2018-10-16T18:28:04.547Z,58.60
2018-10-16T18:30:34.460Z,58.90
2018-10-16T18:33:04.503Z,59.10
2018-10-16T18:35:34.373Z,59.30
2018-10-16T18:38:04.377Z,59.30
2018-10-16T18:40:34.405Z,59.90
2018-10-16T18:43:04.325Z,59.80
2018-10-16T18:45:34.216Z,60.20
2018-10-16T18:48:04.115Z,60.30
2018-10-16T18:50:34.055Z,60.40
2018-10-16T18:53:03.999Z,60.40
2018-10-16T18:55:33.921Z,61.00
2018-10-16T18:58:03.895Z,61.10
2018-10-16T19:00:33.839Z,61.00
2018-10-16T19:03:03.792Z,61.00
2018-10-16T19:05:33.745Z,61.00
2018-10-16T19:08:03.976Z,61.40
2018-10-16T19:10:33.734Z,61.30
2018-10-16T19:13:03.709Z,61.20
2018-10-16T19:15:33.637Z,61.40
2018-10-16T19:18:03.669Z,61.50
2018-10-16T19:20:33.617Z,61.70
2018-10-16T19:23:03.583Z,61.60
2018-10-16T19:25:33.497Z,61.90
2018-10-16T19:28:03.409Z,62.10
2018-10-16T19:30:33.313Z,61.90
2018-10-16T19:33:03.266Z,61.90
2018-10-16T19:35:33.461Z,62.10
2018-10-16T19:38:03.389Z,61.90
2018-10-16T19:40:33.341Z,61.70
2018-10-16T19:43:03.341Z,61.70
2018-10-16T19:45:33.350Z,62.00
2018-10-16T19:48:03.230Z,62.30
2018-10-16T19:50:33.143Z,63.90
2018-10-16T19:53:03.241Z,64.40
2018-10-16T19:55:33.637Z,63.80
2018-10-16T19:58:03.538Z,62.80
2018-10-16T20:00:33.469Z,62.50
2018-10-16T20:03:03.427Z,62.40
2018-10-16T20:05:33.354Z,62.20
2018-10-16T20:08:03.324Z,62.60
2018-10-16T20:10:33.273Z,63.10
2018-10-16T20:13:03.413Z,64.30
2018-10-16T20:15:33.372Z,64.20
2018-10-16T20:18:03.241Z,64.00
2018-10-16T20:20:33.359Z,63.80
2018-10-16T20:23:03.262Z,64.30
2018-10-16T20:25:34.030Z,64.80
2018-10-16T20:28:03.918Z,64.60
2018-10-16T20:30:33.866Z,64.60
2018-10-16T20:33:03.777Z,65.20
2018-10-16T20:35:33.753Z,64.90
2018-10-16T20:38:03.765Z,64.90
2018-10-16T20:40:33.685Z,65.50
2018-10-16T20:43:03.738Z,65.40
2018-10-16T20:45:33.652Z,66.00
2018-10-16T20:48:03.498Z,65.60
2018-10-16T20:50:33.403Z,66.50
2018-10-16T20:53:03.360Z,66.60
2018-10-16T20:55:33.338Z,66.60
2018-10-16T20:58:03.473Z,66.30
2018-10-16T21:00:39.833Z,66.30
2018-10-16T21:03:09.773Z,66.30
2018-10-16T21:05:40.215Z,66.30
2018-10-16T21:08:10.030Z,66.30
2018-10-16T21:10:39.960Z,66.30
2018-10-16T21:13:10.731Z,66.60
2018-10-16T21:15:41.270Z,67.20
2018-10-16T21:18:11.229Z,67.10
2018-10-16T21:20:41.144Z,66.80
2018-10-16T21:23:11.099Z,66.90
2018-10-16T21:25:40.939Z,66.60
2018-10-16T21:28:10.853Z,66.60
2018-10-16T21:30:40.801Z,66.40
2018-10-16T21:33:10.836Z,66.20
2018-10-16T21:35:40.732Z,66.20
2018-10-16T21:38:10.628Z,66.20
2018-10-16T21:40:40.591Z,66.10
2018-10-16T21:43:10.590Z,66.10
2018-10-16T21:45:40.452Z,66.10
2018-10-16T21:48:10.412Z,66.10
2018-10-16T21:50:40.316Z,66.00
2018-10-16T21:53:10.308Z,66.00
2018-10-16T21:55:40.184Z,66.50
2018-10-16T21:58:10.136Z,66.40
2018-10-16T22:00:45.321Z,68.00
2018-10-16T22:03:15.318Z,68.50
2018-10-16T22:05:45.322Z,68.80
2018-10-16T22:08:15.359Z,68.80
2018-10-16T22:10:45.244Z,68.60
2018-10-16T22:13:15.286Z,68.70
2018-10-16T22:15:45.116Z,68.70
2018-10-16T22:18:15.081Z,68.80
2018-10-16T22:20:44.984Z,68.90
2018-10-16T22:23:15.020Z,69.00
2018-10-16T22:25:44.852Z,69.20
2018-10-16T22:28:14.956Z,70.00
2018-10-16T22:30:44.916Z,70.00
2018-10-16T22:33:14.828Z,70.00
2018-10-16T22:35:44.772Z,70.40
2018-10-16T22:38:14.736Z,70.30
2018-10-16T22:40:44.637Z,70.30
2018-10-16T22:43:14.600Z,72.30
2018-10-16T22:45:44.468Z,72.80
2018-10-16T22:48:14.485Z,73.00
2018-10-16T22:50:44.434Z,73.00
2018-10-16T22:53:14.454Z,73.00
2018-10-16T22:55:44.299Z,73.00
2018-10-16T22:58:14.257Z,73.00
2018-10-16T23:00:44.189Z,72.70
2018-10-16T23:03:14.096Z,72.70
2018-10-16T23:05:44.013Z,72.80
2018-10-16T23:08:14.737Z,72.60
2018-10-16T23:10:44.645Z,72.60
2018-10-16T23:13:14.647Z,72.80
2018-10-16T23:15:44.520Z,72.60
2018-10-16T23:18:14.459Z,72.90
2018-10-16T23:20:44.437Z,75.00
2018-10-16T23:23:14.891Z,75.00
2018-10-16T23:25:45.256Z,75.00
2018-10-16T23:28:15.348Z,74.50
2018-10-16T23:30:45.256Z,74.50
2018-10-16T23:33:15.164Z,73.80
2018-10-16T23:35:45.408Z,73.00
2018-10-16T23:38:15.292Z,72.20
2018-10-16T23:40:45.205Z,72.60
2018-10-16T23:43:15.241Z,72.30
2018-10-16T23:45:45.171Z,72.60
2018-10-16T23:48:15.025Z,72.90
2018-10-16T23:50:44.956Z,73.20
2018-10-16T23:53:14.917Z,73.90
2018-10-16T23:55:44.828Z,74.80
2018-10-16T23:58:14.797Z,75.10
